createdAt,value
2018-07-23T00:00:59.053Z,82.42
2018-07-23T00:03:27.462Z,82.79
2018-07-23T00:05:55.652Z,82.88
2018-07-23T00:08:23.739Z,83.15
2018-07-23T00:10:51.765Z,83.51
2018-07-23T00:13:19.794Z,83.83
2018-07-23T00:15:47.900Z,85.15
2018-07-23T00:18:15.940Z,86.65
2018-07-23T00:20:44.047Z,86.05
2018-07-23T00:23:12.229Z,86.20
2018-07-23T00:25:40.244Z,87.03
2018-07-23T00:28:08.391Z,87.33
2018-07-23T00:30:36.472Z,87.75
2018-07-23T00:33:04.496Z,86.99
2018-07-23T00:35:32.547Z,88.72
2018-07-23T00:38:00.623Z,88.97
2018-07-23T00:40:28.717Z,89.40
2018-07-23T00:42:56.902Z,89.50
2018-07-23T00:45:25.065Z,89.64
2018-07-23T00:47:53.161Z,91.45
2018-07-23T00:50:21.259Z,90.63
2018-07-23T00:52:49.329Z,90.28
2018-07-23T00:55:17.394Z,90.44
2018-07-23T00:57:45.457Z,91.16
2018-07-23T01:00:13.494Z,89.13
2018-07-23T01:02:41.601Z,90.11
2018-07-23T01:05:09.752Z,91.97
2018-07-23T01:07:37.968Z,91.72
2018-07-23T01:10:06.126Z,91.66
2018-07-23T01:12:35.112Z,92.49
2018-07-23T01:15:03.375Z,92.56
2018-07-23T01:17:31.509Z,92.05
2018-07-23T01:19:59.990Z,93.46
2018-07-23T01:22:28.503Z,92.85
2018-07-23T01:24:57.347Z,93.26
2018-07-23T01:27:26.316Z,94.39
2018-07-23T01:29:54.410Z,94.84
2018-07-23T01:32:22.396Z,94.51
2018-07-23T01:34:50.649Z,94.89
2018-07-23T01:37:19.097Z,95.16
2018-07-23T01:39:47.098Z,94.92
2018-07-23T01:42:15.103Z,96.04
2018-07-23T01:44:43.081Z,95.98
2018-07-23T01:47:11.352Z,96.51
2018-07-23T01:49:39.388Z,96.71
2018-07-23T01:52:07.477Z,96.67
2018-07-23T01:54:35.712Z,97.32
2018-07-23T01:57:03.822Z,95.86
2018-07-23T01:59:31.916Z,97.38
2018-07-23T02:01:59.988Z,96.49
2018-07-23T02:04:27.939Z,97.23
2018-07-23T02:06:56.021Z,95.82
2018-07-23T02:09:24.137Z,96.30
2018-07-23T02:11:52.119Z,96.46
2018-07-23T02:14:20.318Z,95.24
2018-07-23T02:16:48.371Z,95.63
2018-07-23T02:19:16.433Z,96.41
2018-07-23T02:21:44.509Z,95.15
2018-07-23T02:24:12.484Z,96.28
2018-07-23T02:26:40.493Z,96.02
2018-07-23T02:29:08.595Z,96.51
2018-07-23T02:31:36.632Z,96.76
2018-07-23T02:34:04.686Z,96.58
2018-07-23T02:36:32.756Z,96.12
2018-07-23T02:39:00.849Z,95.84
2018-07-23T02:41:28.931Z,96.63
2018-07-23T02:43:56.933Z,97.00
2018-07-23T02:46:24.944Z,98.07
2018-07-23T02:48:53.024Z,96.79
2018-07-23T02:51:21.042Z,97.35
2018-07-23T02:53:49.036Z,97.61
2018-07-23T02:56:17.067Z,98.29
2018-07-23T02:58:45.255Z,97.99
2018-07-23T03:01:13.315Z,99.15
2018-07-23T03:03:41.368Z,98.97
2018-07-23T03:06:09.455Z,99.58
2018-07-23T03:08:37.509Z,99.68
2018-07-23T03:11:05.643Z,98.64
2018-07-23T03:13:33.679Z,99.97
2018-07-23T03:16:01.829Z,100.00
2018-07-23T03:18:29.928Z,99.47
2018-07-23T03:20:58.346Z,98.45
2018-07-23T03:23:26.419Z,97.59
2018-07-23T03:25:54.617Z,96.90
2018-07-23T03:28:22.858Z,99.08
2018-07-23T03:30:51.110Z,98.09
2018-07-23T03:33:19.261Z,97.11
2018-07-23T03:35:47.337Z,92.59
2018-07-23T03:38:15.361Z,86.29
2018-07-23T03:40:43.408Z,83.89
2018-07-23T03:43:11.478Z,81.30
2018-07-23T03:45:39.497Z,78.51
2018-07-23T03:48:07.573Z,79.28
2018-07-23T03:50:35.740Z,79.93
2018-07-23T03:53:03.948Z,75.92
2018-07-23T03:55:32.017Z,73.31
2018-07-23T03:58:00.382Z,70.98
2018-07-23T04:00:28.580Z,68.18
2018-07-23T04:02:56.901Z,67.80
2018-07-23T04:05:25.003Z,65.02
2018-07-23T04:07:53.221Z,66.71
2018-07-23T04:10:21.246Z,66.07
2018-07-23T04:12:49.404Z,64.87
2018-07-23T04:15:39.424Z,63.34
2018-07-23T06:24:27.443Z,62.86
2018-07-23T06:26:55.625Z,62.00
2018-07-23T06:29:24.211Z,62.09
2018-07-23T06:31:52.553Z,62.32
2018-07-23T06:34:20.726Z,59.30
2018-07-23T06:36:49.268Z,59.09
2018-07-23T06:39:17.523Z,62.35
2018-07-23T06:41:45.774Z,62.45
2018-07-23T06:44:13.924Z,58.44
2018-07-23T06:46:42.142Z,58.91
2018-07-23T06:49:10.380Z,57.33
2018-07-23T06:51:38.574Z,59.17
2018-07-23T06:54:06.880Z,57.87
2018-07-23T06:56:35.625Z,56.77
2018-07-23T06:59:03.919Z,58.65
2018-07-23T07:01:32.139Z,57.22
2018-07-23T07:04:00.450Z,57.91
2018-07-23T07:06:28.727Z,58.54
2018-07-23T07:08:57.067Z,58.83
2018-07-23T07:11:25.352Z,57.19
2018-07-23T07:13:53.659Z,55.69
2018-07-23T07:16:22.011Z,55.71
2018-07-23T07:18:50.376Z,56.06
2018-07-23T07:21:18.788Z,55.21
2018-07-23T07:23:47.101Z,56.98
2018-07-23T07:26:15.579Z,56.51
2018-07-23T07:28:44.023Z,54.05
2018-07-23T07:31:12.473Z,55.29
2018-07-23T07:33:40.862Z,55.63
2018-07-23T07:36:09.514Z,53.35
2018-07-23T07:38:38.118Z,56.00
2018-07-23T07:41:06.783Z,55.16
2018-07-23T07:43:35.344Z,54.58
2018-07-23T07:46:04.279Z,52.72
2018-07-23T07:48:32.735Z,55.80
2018-07-23T07:51:02.066Z,51.72
2018-07-23T07:53:30.691Z,52.19
2018-07-23T07:55:59.091Z,50.43
2018-07-23T07:58:27.861Z,51.23
2018-07-23T08:00:56.369Z,52.23
2018-07-23T08:03:24.822Z,47.87
2018-07-23T08:05:53.224Z,48.47
2018-07-23T08:08:21.696Z,47.36
2018-07-23T08:10:50.093Z,51.36
2018-07-23T08:13:18.514Z,46.38
2018-07-23T08:15:46.995Z,49.90
2018-07-23T08:18:15.488Z,48.03
2018-07-23T08:20:43.863Z,49.04
2018-07-23T08:23:12.421Z,47.84
2018-07-23T08:25:41.001Z,49.28
2018-07-23T08:28:09.530Z,47.69
2018-07-23T08:30:37.956Z,41.94
2018-07-23T08:33:06.325Z,43.62
2018-07-23T08:35:34.807Z,48.34
2018-07-23T08:38:03.205Z,44.24
2018-07-23T08:40:31.741Z,46.38
2018-07-23T08:43:00.117Z,48.40
2018-07-23T08:45:28.522Z,46.97
2018-07-23T08:47:56.797Z,47.10
2018-07-23T08:50:25.239Z,48.19
2018-07-23T08:52:53.648Z,46.26
2018-07-23T08:55:22.675Z,47.90
2018-07-23T08:57:51.074Z,46.95
2018-07-23T09:00:19.600Z,44.93
2018-07-23T09:02:48.111Z,50.14
2018-07-23T09:05:16.544Z,48.59
2018-07-23T09:07:45.017Z,49.24
2018-07-23T09:10:13.406Z,51.14
2018-07-23T09:12:41.870Z,47.94
2018-07-23T09:15:10.488Z,52.02
2018-07-23T09:17:38.787Z,47.05
2018-07-23T09:20:07.203Z,43.04
2018-07-23T09:22:36.427Z,45.92
2018-07-23T09:25:05.215Z,48.31
2018-07-23T09:27:33.780Z,43.23
2018-07-23T09:30:02.310Z,47.60
2018-07-23T09:32:30.698Z,44.44
2018-07-23T09:34:59.211Z,42.44
2018-07-23T09:37:27.495Z,42.62
2018-07-23T09:39:55.644Z,43.20
2018-07-23T09:42:23.843Z,39.24
2018-07-23T09:44:52.042Z,44.15
2018-07-23T09:47:20.241Z,45.28
2018-07-23T09:49:48.443Z,41.68
2018-07-23T09:52:16.586Z,45.22
2018-07-23T09:54:44.911Z,44.22
2018-07-23T09:57:13.264Z,41.23
2018-07-23T09:59:41.533Z,42.33
2018-07-23T10:02:09.865Z,46.60
2018-07-23T10:04:38.087Z,43.34
2018-07-23T10:07:06.293Z,46.25
2018-07-23T10:09:34.351Z,45.45
2018-07-23T10:12:02.641Z,45.52
2018-07-23T10:14:30.694Z,45.44
2018-07-23T10:16:58.825Z,43.27
2018-07-23T10:19:27.029Z,44.55
2018-07-23T10:21:55.193Z,43.32
2018-07-23T10:24:23.394Z,45.26
2018-07-23T10:26:51.767Z,47.16
2018-07-23T10:29:19.983Z,48.44
2018-07-23T10:31:48.099Z,45.10
2018-07-23T10:34:16.349Z,43.96
2018-07-23T10:36:44.512Z,47.10
2018-07-23T10:39:12.939Z,45.19
2018-07-23T10:43:04.914Z,44.07
2018-07-23T10:45:32.935Z,45.42
2018-07-23T10:48:01.347Z,44.97
2018-07-23T10:50:29.618Z,49.30
2018-07-23T10:52:57.848Z,42.28
2018-07-23T10:55:25.982Z,42.95
2018-07-23T10:57:54.431Z,43.66
2018-07-23T11:00:22.782Z,50.49
2018-07-23T11:02:50.981Z,57.23
2018-07-23T11:05:19.232Z,61.69
2018-07-23T11:07:47.486Z,66.80
2018-07-23T11:10:15.669Z,73.14
2018-07-23T11:12:43.883Z,78.34
2018-07-23T11:15:12.098Z,77.76
2018-07-23T11:17:40.886Z,73.64
2018-07-23T11:20:11.744Z,86.37
2018-07-23T11:22:40.461Z,89.35
2018-07-23T11:25:38.595Z,90.25
2018-07-23T11:27:37.180Z,88.97
2018-07-23T11:30:05.904Z,83.80
2018-07-23T11:32:34.897Z,86.96
2018-07-23T11:35:03.058Z,86.41
2018-07-23T11:37:31.660Z,93.16
2018-07-23T11:40:00.001Z,90.63
2018-07-23T11:42:28.257Z,90.35
2018-07-23T11:44:56.517Z,91.23
2018-07-23T11:47:24.833Z,93.08
2018-07-23T11:49:53.194Z,90.99
2018-07-23T11:52:21.513Z,87.73
2018-07-23T11:54:49.914Z,89.34
2018-07-23T11:57:18.211Z,90.50
2018-07-23T11:59:46.945Z,90.64
2018-07-23T12:02:15.299Z,90.80
2018-07-23T12:04:43.776Z,91.98
2018-07-23T12:07:11.966Z,90.74
2018-07-23T12:09:40.326Z,89.20
2018-07-23T12:12:09.665Z,90.86
2018-07-23T12:14:38.016Z,93.02
2018-07-23T12:17:06.389Z,91.99
2018-07-23T12:19:34.976Z,92.06
2018-07-23T12:22:03.611Z,88.27
2018-07-23T12:24:32.031Z,90.58
2018-07-23T12:27:00.538Z,89.39
2018-07-23T12:29:29.263Z,89.45
2018-07-23T12:31:57.513Z,87.54
2018-07-23T12:34:25.767Z,92.05
2018-07-23T12:36:54.325Z,92.89
2018-07-23T12:39:22.580Z,91.35
2018-07-23T12:41:50.953Z,87.10
2018-07-23T12:44:19.129Z,87.17
2018-07-23T12:46:47.316Z,91.31
2018-07-23T12:49:15.502Z,89.73
2018-07-23T12:51:43.659Z,92.07
2018-07-23T12:54:12.057Z,93.16
2018-07-23T12:56:40.415Z,91.34
2018-07-23T12:59:08.947Z,91.06
2018-07-23T13:01:38.087Z,89.69
2018-07-23T13:04:06.814Z,90.36
2018-07-23T13:06:36.873Z,92.27
2018-07-23T13:09:09.070Z,91.37
2018-07-23T13:11:37.454Z,92.51
2018-07-23T13:14:05.985Z,97.28
2018-07-23T13:16:34.640Z,95.44
2018-07-23T13:19:03.369Z,94.58
2018-07-23T13:21:31.795Z,93.65
2018-07-23T13:24:00.029Z,92.82
2018-07-23T13:26:28.465Z,95.38
2018-07-23T13:29:00.711Z,96.82
2018-07-23T13:31:32.437Z,93.67
2018-07-23T13:34:03.573Z,98.70
2018-07-23T13:36:32.606Z,98.63
2018-07-23T13:39:00.975Z,98.62
2018-07-23T13:41:29.302Z,99.86
2018-07-23T13:43:57.606Z,98.43
2018-07-23T13:46:25.872Z,99.60
2018-07-23T13:48:54.157Z,98.81
2018-07-23T13:51:22.492Z,99.50
2018-07-23T13:53:50.890Z,100.00
2018-07-23T13:56:19.134Z,100.00
2018-07-23T13:58:47.704Z,100.00
2018-07-23T14:01:16.140Z,99.54
2018-07-23T14:03:44.402Z,100.00
2018-07-23T14:06:12.667Z,98.70
2018-07-23T14:08:43.015Z,97.91
2018-07-23T14:11:11.573Z,98.24
2018-07-23T14:13:39.904Z,98.11
2018-07-23T14:16:08.261Z,100.00
2018-07-23T14:18:36.717Z,100.00
2018-07-23T14:21:05.067Z,99.99
2018-07-23T14:23:33.355Z,100.00
2018-07-23T14:26:01.587Z,100.00
2018-07-23T14:28:29.897Z,100.00
2018-07-23T14:30:58.178Z,100.00
2018-07-23T14:33:26.667Z,100.00
2018-07-23T14:35:55.014Z,100.00
2018-07-23T14:38:24.185Z,100.00
2018-07-23T14:40:53.056Z,100.00
2018-07-23T14:43:21.306Z,100.00
2018-07-23T14:45:50.180Z,100.00
2018-07-23T14:48:18.486Z,100.00
2018-07-23T14:50:48.038Z,100.00
2018-07-23T14:53:16.271Z,99.65
2018-07-23T14:55:44.759Z,100.00
2018-07-23T14:58:13.024Z,100.00
2018-07-23T15:00:41.200Z,100.00
2018-07-23T15:03:09.463Z,100.00
2018-07-23T15:05:37.775Z,99.66
2018-07-23T15:08:06.254Z,98.88
2018-07-23T15:10:34.638Z,99.54
2018-07-23T15:13:02.883Z,96.64
2018-07-23T15:15:31.196Z,97.54
2018-07-23T15:17:59.600Z,96.49
2018-07-23T15:20:27.742Z,97.63
2018-07-23T15:22:55.998Z,98.24
2018-07-23T15:25:24.257Z,98.93
2018-07-23T15:27:52.570Z,98.81
2018-07-23T15:30:20.800Z,97.02
2018-07-23T15:32:49.165Z,97.73
2018-07-23T15:35:17.456Z,100.00
2018-07-23T15:37:45.808Z,98.33
2018-07-23T15:40:14.091Z,99.46
2018-07-23T15:42:42.266Z,96.98
2018-07-23T15:45:10.631Z,95.04
2018-07-23T15:47:39.082Z,97.18
2018-07-23T15:50:07.311Z,94.26
2018-07-23T15:52:35.530Z,95.58
2018-07-23T15:55:03.775Z,96.76
2018-07-23T15:57:32.110Z,90.12
2018-07-23T16:00:00.192Z,91.08
2018-07-23T16:02:28.669Z,92.51
2018-07-23T16:04:56.752Z,93.97
2018-07-23T16:07:25.028Z,95.36
2018-07-23T16:09:53.100Z,96.11
2018-07-23T16:12:21.454Z,94.85
2018-07-23T16:14:49.509Z,95.02
2018-07-23T16:17:17.608Z,94.52
2018-07-23T16:19:45.719Z,96.78
2018-07-23T16:22:13.776Z,95.26
2018-07-23T16:24:41.905Z,96.98
2018-07-23T16:27:09.913Z,97.86
2018-07-23T16:29:38.024Z,94.75
2018-07-23T16:32:06.157Z,97.25
2018-07-23T16:34:34.257Z,98.29
2018-07-23T16:37:02.438Z,95.39
2018-07-23T16:39:30.567Z,95.92
2018-07-23T16:41:58.803Z,94.01
2018-07-23T16:44:26.950Z,96.80
2018-07-23T16:46:55.250Z,98.04
2018-07-23T16:49:23.334Z,98.26
2018-07-23T16:51:51.585Z,96.81
2018-07-23T16:54:19.916Z,98.30
2018-07-23T16:56:48.297Z,98.91
2018-07-23T16:59:16.401Z,98.01
2018-07-23T17:01:44.559Z,98.73
2018-07-23T17:04:12.754Z,99.87
2018-07-23T17:06:41.237Z,99.81
2018-07-23T17:09:11.139Z,100.00
2018-07-23T17:11:39.481Z,100.00
2018-07-23T17:14:08.137Z,100.00
2018-07-23T17:16:36.349Z,100.00
2018-07-23T17:19:04.702Z,100.00
2018-07-23T17:21:32.961Z,100.00
2018-07-23T17:24:01.426Z,100.00
2018-07-23T17:26:29.602Z,100.00
2018-07-23T17:28:57.845Z,100.00
2018-07-23T17:31:26.166Z,100.00
2018-07-23T17:33:54.345Z,100.00
2018-07-23T17:36:22.556Z,100.00
2018-07-23T17:38:50.674Z,100.00
2018-07-23T17:41:18.899Z,100.00
2018-07-23T17:43:47.103Z,100.00
2018-07-23T17:46:15.408Z,100.00
2018-07-23T17:48:43.496Z,100.00
2018-07-23T17:51:11.658Z,100.00
2018-07-23T17:53:39.870Z,100.00
2018-07-23T17:56:08.008Z,100.00
2018-07-23T17:58:36.197Z,100.00
2018-07-23T18:01:04.371Z,100.00
2018-07-23T18:03:32.607Z,100.00
2018-07-23T18:06:00.787Z,100.00
2018-07-23T18:08:28.995Z,100.00
2018-07-23T18:10:57.120Z,100.00
2018-07-23T18:13:25.406Z,100.00
2018-07-23T18:15:53.765Z,100.00
2018-07-23T18:18:21.917Z,100.00
2018-07-23T18:20:50.030Z,100.00
2018-07-23T18:23:18.158Z,100.00
2018-07-23T18:25:46.422Z,100.00
2018-07-23T18:28:14.736Z,100.00
2018-07-23T18:30:43.652Z,100.00
2018-07-23T18:33:16.409Z,100.00
2018-07-23T18:35:45.651Z,100.00
2018-07-23T18:38:14.013Z,100.00
2018-07-23T18:40:42.351Z,100.00
2018-07-23T18:43:10.769Z,100.00
2018-07-23T18:45:39.009Z,100.00
2018-07-23T18:48:18.243Z,100.00
2018-07-23T18:50:46.811Z,100.00
2018-07-23T18:53:19.679Z,100.00
2018-07-23T18:55:47.971Z,100.00
2018-07-23T18:58:16.333Z,100.00
2018-07-23T19:00:44.625Z,100.00
2018-07-23T19:03:13.073Z,100.00
2018-07-23T19:05:41.368Z,100.00
2018-07-23T19:08:09.769Z,100.00
2018-07-23T19:10:38.173Z,100.00
2018-07-23T19:13:06.659Z,100.00
2018-07-23T19:15:34.986Z,100.00
2018-07-23T19:18:03.527Z,100.00
2018-07-23T19:20:32.030Z,100.00
2018-07-23T19:23:00.246Z,100.00
2018-07-23T19:25:28.573Z,100.00
2018-07-23T19:27:56.923Z,100.00
2018-07-23T19:30:25.342Z,100.00
2018-07-23T19:32:53.564Z,100.00
2018-07-23T19:35:21.850Z,100.00
2018-07-23T19:37:50.291Z,100.00
2018-07-23T19:40:18.614Z,100.00
2018-07-23T19:42:47.143Z,100.00
2018-07-23T19:45:15.581Z,100.00
2018-07-23T19:47:43.967Z,100.00
2018-07-23T19:50:12.273Z,100.00
2018-07-23T19:52:40.809Z,100.00
2018-07-23T19:55:09.511Z,100.00
2018-07-23T19:57:37.783Z,100.00
2018-07-23T20:00:06.347Z,100.00
2018-07-23T20:02:34.814Z,100.00
2018-07-23T20:05:03.049Z,100.00
2018-07-23T20:07:31.274Z,100.00
2018-07-23T20:09:59.677Z,100.00
2018-07-23T20:12:28.077Z,100.00
2018-07-23T20:14:56.378Z,100.00
2018-07-23T20:17:24.567Z,100.00
2018-07-23T20:19:52.978Z,100.00
2018-07-23T20:22:21.184Z,100.00
2018-07-23T20:24:49.427Z,100.00
2018-07-23T20:27:17.725Z,100.00
2018-07-23T20:29:45.946Z,100.00
2018-07-23T20:32:14.090Z,100.00
2018-07-23T20:34:42.348Z,100.00
2018-07-23T20:37:10.454Z,100.00
2018-07-23T20:39:38.661Z,100.00
2018-07-23T20:42:07.043Z,100.00
2018-07-23T20:44:35.348Z,100.00
2018-07-23T20:47:03.593Z,100.00
2018-07-23T20:49:31.840Z,100.00
2018-07-23T20:52:00.058Z,100.00
2018-07-23T20:54:28.163Z,100.00
2018-07-23T20:56:56.280Z,100.00
2018-07-23T20:59:24.443Z,100.00
2018-07-23T21:01:52.618Z,100.00
2018-07-23T21:04:20.692Z,100.00
2018-07-23T21:06:48.805Z,100.00
2018-07-23T21:09:16.947Z,100.00
2018-07-23T21:11:45.156Z,100.00
2018-07-23T21:14:13.288Z,100.00
2018-07-23T21:16:41.614Z,100.00
2018-07-23T21:19:10.060Z,100.00
2018-07-23T21:21:38.355Z,100.00
2018-07-23T21:24:06.800Z,100.00
2018-07-23T21:26:35.296Z,100.00
2018-07-23T21:29:03.534Z,100.00
2018-07-23T21:31:31.759Z,100.00
2018-07-23T21:33:59.997Z,100.00
2018-07-23T21:36:28.064Z,100.00
2018-07-23T21:38:56.120Z,100.00
2018-07-23T21:41:24.508Z,100.00
2018-07-23T21:43:52.670Z,100.00
2018-07-23T21:46:20.733Z,100.00
2018-07-23T21:48:48.992Z,100.00
2018-07-23T21:51:17.233Z,100.00
2018-07-23T21:53:45.475Z,100.00
2018-07-23T21:56:13.648Z,100.00
2018-07-23T21:58:41.872Z,100.00
2018-07-23T22:01:10.173Z,100.00
2018-07-23T22:03:38.357Z,100.00
2018-07-23T22:06:06.505Z,100.00
2018-07-23T22:08:34.608Z,100.00
2018-07-23T22:11:02.762Z,100.00
2018-07-23T22:13:30.828Z,100.00
2018-07-23T22:15:58.899Z,100.00
2018-07-23T22:18:26.966Z,100.00
2018-07-23T22:20:55.046Z,100.00
2018-07-23T22:23:23.131Z,100.00
2018-07-23T22:25:51.211Z,100.00
2018-07-23T22:28:19.355Z,100.00
2018-07-23T22:30:47.480Z,100.00
2018-07-23T22:33:15.614Z,100.00
2018-07-23T22:35:43.680Z,100.00
2018-07-23T22:38:11.838Z,100.00
2018-07-23T22:40:39.887Z,100.00
2018-07-23T22:43:07.967Z,100.00
2018-07-23T22:45:35.941Z,100.00
2018-07-23T22:48:03.944Z,100.00
2018-07-23T22:50:31.973Z,100.00
2018-07-23T22:53:00.038Z,100.00
2018-07-23T22:55:28.105Z,100.00
2018-07-23T22:57:56.125Z,100.00
2018-07-23T23:00:24.189Z,100.00
2018-07-23T23:02:52.339Z,100.00
2018-07-23T23:05:20.460Z,100.00
2018-07-23T23:07:48.465Z,100.00
2018-07-23T23:10:16.519Z,100.00
2018-07-23T23:12:44.633Z,100.00
2018-07-23T23:15:12.703Z,100.00
2018-07-23T23:17:40.805Z,100.00
2018-07-23T23:20:09.302Z,100.00
2018-07-23T23:22:37.492Z,100.00
2018-07-23T23:25:05.549Z,100.00
2018-07-23T23:27:33.726Z,100.00
2018-07-23T23:30:01.872Z,100.00
2018-07-23T23:33:59.330Z,100.00
2018-07-23T23:36:27.424Z,100.00
2018-07-23T23:38:55.519Z,100.00
2018-07-23T23:41:23.820Z,100.00
2018-07-23T23:43:51.953Z,100.00
2018-07-23T23:46:20.125Z,100.00
2018-07-23T23:48:48.234Z,100.00
2018-07-23T23:51:16.405Z,100.00
2018-07-23T23:53:44.442Z,100.00
2018-07-23T23:56:12.594Z,100.00
2018-07-23T23:58:40.687Z,100.00
